Time;durP1;ratioP1;P1;durP2;ratioP2;P2;SDS_P1;SDS_P2;PMS_P1;PMS_P2;Temp;Humidity;BMP_temperature;BMP_pressure;BME280_temperature;BME280_humidity;BME280_pressure;Samples;Min_cycle;Max_cycle;Signal;HPM_P1;HPM_P2
2021/01/12 00:00:16;;;;;;;6.37;5.83;;;;;;;2.64;90.30;99650.66;4975037;28;20412;-76
2021/01/12 00:02:41;;;;;;;4.30;4.00;;;;;;;2.63;90.22;99653.63;4992292;28;20440;-75
2021/01/12 00:05:07;;;;;;;3.87;3.57;;;;;;;2.62;90.28;99643.94;4992352;28;20416;-76
2021/01/12 00:07:33;;;;;;;3.40;3.07;;;;;;;2.62;90.50;99642.03;4974297;28;20249;-77
2021/01/12 00:09:58;;;;;;;4.63;4.23;;;;;;;2.62;90.57;99647.44;4992173;28;20508;-74
2021/01/12 00:12:24;;;;;;;4.50;4.20;;;;;;;2.61;90.35;99635.03;4992130;28;20173;-78
2021/01/12 00:14:49;;;;;;;5.20;4.77;;;;;;;2.60;90.81;99621.81;4992145;28;20204;-74
2021/01/12 00:17:15;;;;;;;5.30;4.80;;;;;;;2.61;90.59;99615.34;4991630;28;20230;-75
2021/01/12 00:19:41;;;;;;;8.30;7.63;;;;;;;2.62;90.69;99614.25;4974669;28;20181;-75
2021/01/12 00:22:14;;;;;;;6.63;6.03;;;;;;;2.63;90.42;99619.38;4991810;28;20413;-75
2021/01/12 00:24:46;;;;;;;4.77;4.43;;;;;;;2.62;90.56;99616.97;4991961;28;20504;-77
2021/01/12 00:27:13;;;;;;;7.37;6.80;;;;;;;2.65;90.11;99613.69;4990126;28;20428;-76
2021/01/12 00:29:42;;;;;;;5.10;4.67;;;;;;;2.67;90.07;99622.31;4992099;28;20483;-77
2021/01/12 00:32:13;;;;;;;6.87;6.37;;;;;;;2.62;90.43;99609.69;4991961;28;20778;-74
2021/01/12 00:34:39;;;;;;;8.23;7.63;;;;;;;2.65;90.35;99611.00;4991809;28;20424;-74
2021/01/12 00:37:04;;;;;;;7.73;7.20;;;;;;;2.68;90.31;99613.94;4991373;28;20468;-73
2021/01/12 00:39:30;;;;;;;4.90;4.50;;;;;;;2.68;90.18;99602.34;4991519;28;20185;-75
2021/01/12 00:41:56;;;;;;;8.80;8.17;;;;;;;2.67;90.01;99603.44;4990324;28;20546;-75
2021/01/12 00:44:23;;;;;;;3.43;3.20;;;;;;;2.69;90.30;99601.25;4991672;28;20181;-78
2021/01/12 00:46:49;;;;;;;2.80;2.60;;;;;;;2.68;90.40;99596.97;4991181;28;20837;-74
2021/01/12 00:49:17;;;;;;;5.33;5.00;;;;;;;2.68;90.15;99602.34;4991465;28;20567;-74
2021/01/12 00:51:42;;;;;;;4.57;4.17;;;;;;;2.71;90.28;99592.88;4991144;28;20185;-77
2021/01/12 00:54:22;;;;;;;3.73;3.37;;;;;;;2.72;89.88;99592.59;4991205;28;20419;-79
2021/01/12 00:56:48;;;;;;;3.53;3.23;;;;;;;2.73;89.83;99591.50;4990320;28;20345;-76
2021/01/12 00:59:14;;;;;;;4.33;3.93;;;;;;;2.75;90.22;99583.97;4991544;28;20754;-76
2021/01/12 01:01:39;;;;;;;3.80;3.50;;;;;;;2.78;89.66;99580.72;4973027;28;20436;-76
2021/01/12 01:04:08;;;;;;;5.23;4.83;;;;;;;2.81;89.84;99563.97;4990396;28;20192;-78
2021/01/12 01:06:34;;;;;;;3.13;2.93;;;;;;;2.82;89.43;99564.75;4990653;28;20192;-78
2021/01/12 01:08:59;;;;;;;7.53;7.03;;;;;;;2.82;89.62;99549.38;4991039;28;20420;-75
2021/01/12 01:11:25;;;;;;;4.03;3.73;;;;;;;2.85;89.73;99551.50;4991188;28;20189;-75
2021/01/12 01:13:50;;;;;;;6.70;6.20;;;;;;;2.84;89.60;99549.91;4991111;28;20177;-74
2021/01/12 01:16:16;;;;;;;5.37;4.97;;;;;;;2.83;90.24;99548.28;4990576;28;20204;-75
2021/01/12 01:18:41;;;;;;;3.33;3.03;;;;;;;2.84;89.65;99536.41;4991148;28;20634;-80
2021/01/12 01:21:10;;;;;;;3.80;3.50;;;;;;;2.86;89.67;99541.53;4991126;28;20260;-77
2021/01/12 01:23:36;;;;;;;6.27;5.77;;;;;;;2.87;89.47;99543.94;4991090;28;20543;-76
2021/01/12 01:26:01;;;;;;;8.57;7.97;;;;;;;2.87;89.66;99535.84;4990940;28;20424;-78
2021/01/12 01:28:26;;;;;;;4.27;3.97;;;;;;;2.91;89.75;99542.31;4990596;28;20196;-77
2021/01/12 01:30:53;;;;;;;8.03;7.43;;;;;;;2.89;90.04;99540.94;4991040;28;20173;-77
2021/01/12 01:33:19;;;;;;;4.27;3.97;;;;;;;2.95;89.30;99534.44;4991139;28;20259;-75
2021/01/12 01:35:44;;;;;;;7.90;7.30;;;;;;;2.94;89.76;99530.13;4990929;28;20967;-76
2021/01/12 01:38:10;;;;;;;7.00;6.40;;;;;;;2.94;89.92;99522.03;4989056;28;20181;-78
2021/01/12 01:40:35;;;;;;;7.97;7.37;;;;;;;2.96;89.98;99517.97;4990859;28;20177;-77
2021/01/12 01:43:01;;;;;;;4.37;4.07;;;;;;;2.95;89.96;99516.38;4992724;28;20264;-74
2021/01/12 01:45:26;;;;;;;7.40;6.80;;;;;;;2.97;89.92;99511.47;4994864;28;20188;-78
2021/01/12 01:47:52;;;;;;;8.67;7.97;;;;;;;2.97;90.35;99508.78;4994100;28;20228;-82
2021/01/12 01:50:21;;;;;;;3.60;3.30;;;;;;;3.03;90.12;99504.13;4994699;28;20177;-79
2021/01/12 01:52:52;;;;;;;3.30;3.00;;;;;;;3.02;89.93;99507.91;4977186;28;20181;-81
2021/01/12 01:55:18;;;;;;;4.37;3.97;;;;;;;2.99;90.28;99516.59;4976698;28;20435;-78
2021/01/12 01:57:44;;;;;;;3.53;3.30;;;;;;;2.96;90.51;99509.88;4976473;28;20925;-81
2021/01/12 02:00:11;;;;;;;5.67;5.20;;;;;;;2.97;90.52;99506.09;4994495;28;20427;-76
2021/01/12 02:02:39;;;;;;;6.80;6.30;;;;;;;2.95;90.72;99485.88;4994481;28;20184;-76
2021/01/12 02:05:11;;;;;;;5.63;5.23;;;;;;;3.01;90.91;99510.91;4994311;28;20893;-76
2021/01/12 02:07:42;;;;;;;3.13;2.93;;;;;;;2.99;90.68;99495.81;4993813;28;20422;-79
2021/01/12 02:10:11;;;;;;;3.60;3.20;;;;;;;2.99;90.97;99492.31;4993366;28;20528;-77
2021/01/12 02:12:46;;;;;;;1.53;1.43;;;;;;;2.97;90.50;99472.91;4994296;28;20423;-75
2021/01/12 02:15:17;;;;;;;5.93;5.43;;;;;;;2.99;90.31;99479.63;4994303;28;20423;-78
2021/01/12 02:17:44;;;;;;;4.90;4.50;;;;;;;2.95;90.39;99464.31;4992253;28;20932;-76
2021/01/12 02:20:11;;;;;;;7.17;6.67;;;;;;;2.93;91.17;99463.78;4994148;28;20425;-76
2021/01/12 02:22:41;;;;;;;6.90;6.40;;;;;;;2.95;91.21;99458.91;4993109;28;20463;-75
2021/01/12 02:25:09;;;;;;;3.53;2.77;;;;;;;2.93;91.52;99451.09;4993813;28;20436;-74
2021/01/12 02:27:34;;;;;;;3.47;3.20;;;;;;;2.91;90.94;99447.88;4993204;28;20953;-77
2021/01/12 02:29:59;;;;;;;2.17;1.97;;;;;;;2.89;91.40;99443.84;4994110;28;20452;-74
2021/01/12 02:32:25;;;;;;;3.90;3.60;;;;;;;2.89;91.29;99439.28;4993921;28;20220;-77
2021/01/12 02:34:54;;;;;;;2.60;2.40;;;;;;;2.88;91.07;99434.94;4992491;28;20268;-81
2021/01/12 02:37:20;;;;;;;5.70;5.27;;;;;;;2.87;91.38;99432.53;4993013;28;20739;-75
2021/01/12 02:39:57;;;;;;;5.20;4.87;;;;;;;2.87;91.63;99430.66;4993636;28;20516;-79
2021/01/12 02:42:22;;;;;;;1.43;1.33;;;;;;;2.88;91.30;99426.84;4993672;28;20438;-76
2021/01/12 02:44:47;;;;;;;2.30;2.17;;;;;;;2.88;91.40;99421.47;4993777;28;20515;-77
2021/01/12 02:47:12;;;;;;;2.60;2.40;;;;;;;2.89;91.31;99415.00;4993255;28;20563;-76
2021/01/12 02:49:38;;;;;;;3.00;2.80;;;;;;;2.90;91.24;99408.53;4994062;28;20204;-74
2021/01/12 02:52:04;;;;;;;2.20;2.10;;;;;;;2.91;91.28;99415.53;4993539;28;20185;-76
2021/01/12 02:54:30;;;;;;;4.50;4.10;;;;;;;2.93;91.23;99404.44;4996444;28;20173;-74
2021/01/12 02:56:55;;;;;;;3.27;2.57;;;;;;;2.93;91.41;99390.94;4995784;28;20276;-74
2021/01/12 02:59:20;;;;;;;3.53;3.30;;;;;;;2.91;91.76;99401.22;4994061;28;20201;-75
2021/01/12 03:01:46;;;;;;;2.63;2.23;;;;;;;2.91;92.02;99402.03;4992103;28;20169;-75
2021/01/12 03:04:11;;;;;;;2.40;2.20;;;;;;;2.89;91.98;99390.72;4993773;28;20204;-75
2021/01/12 03:06:37;;;;;;;5.30;4.80;;;;;;;2.94;91.05;99389.84;4991592;28;20575;-74
2021/01/12 03:09:03;;;;;;;2.17;2.00;;;;;;;2.91;91.56;99385.84;4993579;28;20356;-74
2021/01/12 03:11:28;;;;;;;3.30;3.07;;;;;;;2.90;91.87;99378.84;4993221;28;20204;-74
2021/01/12 03:13:54;;;;;;;3.13;2.93;;;;;;;2.89;92.12;99382.63;4993404;28;20756;-74
2021/01/12 03:16:20;;;;;;;6.23;5.83;;;;;;;2.89;91.92;99371.84;4992476;28;20566;-76
2021/01/12 03:18:45;;;;;;;3.33;3.03;;;;;;;2.90;92.17;99373.44;4992894;28;20177;-76
2021/01/12 03:21:10;;;;;;;4.27;3.97;;;;;;;2.87;92.17;99357.00;4992892;28;20424;-76
2021/01/12 03:23:36;;;;;;;3.90;3.60;;;;;;;2.89;92.20;99352.13;4992865;28;20256;-74
2021/01/12 03:26:01;;;;;;;3.70;3.40;;;;;;;2.86;92.06;99342.72;4992810;28;20192;-76
2021/01/12 03:28:26;;;;;;;2.90;2.10;;;;;;;2.89;92.31;99342.19;4992445;28;20188;-74
2021/01/12 03:30:52;;;;;;;2.63;2.47;;;;;;;2.91;92.12;99333.78;4992756;28;20204;-76
2021/01/12 03:33:17;;;;;;;2.33;1.97;;;;;;;2.92;91.62;99346.19;4992686;28;20200;-74
2021/01/12 03:35:42;;;;;;;2.33;2.13;;;;;;;2.91;92.02;99340.00;4991312;28;20220;-75
2021/01/12 03:38:08;;;;;;;2.87;2.67;;;;;;;2.91;91.83;99341.88;4992114;28;20188;-75
2021/01/12 03:40:33;;;;;;;4.53;4.23;;;;;;;2.92;91.84;99327.31;4992681;28;20174;-73
2021/01/12 03:42:58;;;;;;;3.70;3.40;;;;;;;2.94;92.13;99325.91;4992512;28;20558;-73
2021/01/12 03:45:24;;;;;;;1.53;1.43;;;;;;;2.94;92.07;99317.03;4992496;28;20180;-76
2021/01/12 03:47:49;;;;;;;5.23;4.73;;;;;;;2.92;92.52;99316.50;4991809;28;20220;-75
2021/01/12 03:50:15;;;;;;;5.47;5.07;;;;;;;2.90;92.09;99307.91;4992508;28;20231;-74
2021/01/12 03:52:40;;;;;;;2.37;2.20;;;;;;;2.92;92.54;99311.13;4992000;28;20193;-74
2021/01/12 03:55:06;;;;;;;1.70;1.60;;;;;;;2.94;92.33;99300.84;4991296;28;20169;-75
2021/01/12 03:57:31;;;;;;;2.90;2.70;;;;;;;2.93;92.68;99305.44;4991168;28;20283;-74
2021/01/12 03:59:57;;;;;;;1.30;1.20;;;;;;;2.94;92.98;99296.25;4992104;28;20925;-74
2021/01/12 04:02:22;;;;;;;1.27;1.17;;;;;;;2.99;92.11;99298.88;4990773;28;20268;-75
2021/01/12 04:04:47;;;;;;;2.40;2.20;;;;;;;3.01;92.12;99295.88;4991715;28;20188;-74
2021/01/12 04:07:13;;;;;;;3.23;3.03;;;;;;;3.01;91.93;99297.78;4991380;28;20642;-77
2021/01/12 04:09:39;;;;;;;2.37;2.20;;;;;;;3.01;91.95;99300.47;4991756;28;20542;-73
2021/01/12 04:12:05;;;;;;;1.23;1.13;;;;;;;3.03;91.58;99282.09;4991990;28;20208;-75
2021/01/12 04:14:30;;;;;;;4.10;3.80;;;;;;;3.01;92.32;99279.69;4991772;28;20448;-76
2021/01/12 04:16:56;;;;;;;3.00;0.87;;;;;;;3.01;91.95;99277.00;4991135;28;20756;-74
2021/01/12 04:19:21;;;;;;;2.00;1.90;;;;;;;3.04;91.88;99271.03;4991602;28;20177;-74
2021/01/12 04:21:46;;;;;;;1.47;1.37;;;;;;;3.04;92.27;99271.03;4991702;28;20697;-74
2021/01/12 04:24:11;;;;;;;3.20;3.00;;;;;;;3.03;92.18;99268.59;4991720;28;20183;-74
2021/01/12 04:26:37;;;;;;;1.50;1.40;;;;;;;2.99;92.38;99266.50;4991425;28;20185;-74
2021/01/12 04:29:03;;;;;;;3.47;3.23;;;;;;;2.97;92.42;99275.97;4991755;28;20505;-74
2021/01/12 04:31:29;;;;;;;1.17;1.13;;;;;;;2.95;91.84;99265.47;4991757;28;20547;-75
2021/01/12 04:33:55;;;;;;;3.23;3.00;;;;;;;2.92;92.40;99259.88;4990409;28;20452;-76
2021/01/12 04:36:20;;;;;;;2.03;1.83;;;;;;;2.97;92.56;99254.41;4990902;28;20566;-74
2021/01/12 04:38:45;;;;;;;1.57;1.47;;;;;;;2.90;92.11;99248.56;4991805;28;20176;-74
2021/01/12 04:41:11;;;;;;;3.20;2.90;;;;;;;2.89;92.53;99246.94;4991582;28;20189;-75
2021/01/12 04:43:36;;;;;;;1.20;1.10;;;;;;;2.90;92.53;99241.28;4991485;28;20387;-74
2021/01/12 04:46:02;;;;;;;2.37;2.17;;;;;;;2.86;92.09;99237.53;4991328;28;20184;-77
2021/01/12 04:48:27;;;;;;;2.10;2.00;;;;;;;2.82;92.49;99247.31;4991029;28;20173;-75
2021/01/12 04:51:11;;;;;;;1.63;1.33;;;;;;;2.79;91.97;99223.63;4991350;28;20544;-75
2021/01/12 04:53:48;;;;;;;1.10;1.00;;;;;;;2.77;92.54;99219.63;4991432;28;20287;-74
2021/01/12 04:56:20;;;;;;;3.30;3.10;;;;;;;2.77;92.83;99228.50;4990986;28;20458;-74
2021/01/12 04:58:48;;;;;;;1.10;1.00;;;;;;;2.76;92.45;99218.81;4991515;28;20417;-76
2021/01/12 05:01:22;;;;;;;1.63;1.50;;;;;;;2.76;92.68;99212.63;4991376;28;20483;-75
2021/01/12 05:03:51;;;;;;;1.20;1.10;;;;;;;2.71;92.36;99202.69;4991203;28;20636;-74
2021/01/12 05:06:19;;;;;;;2.70;2.50;;;;;;;2.69;92.56;99202.97;4989353;28;20425;-75
2021/01/12 05:08:46;;;;;;;1.60;1.50;;;;;;;2.67;92.85;99198.97;4991170;28;20424;-75
2021/01/12 05:11:12;;;;;;;2.07;1.93;;;;;;;2.65;92.66;99190.38;4991157;28;20422;-75
2021/01/12 05:13:42;;;;;;;1.30;1.20;;;;;;;2.65;92.66;99195.75;4991074;28;20420;-76
2021/01/12 05:16:08;;;;;;;1.07;1.03;;;;;;;2.62;92.43;99188.25;4989600;28;20239;-75
2021/01/12 05:18:39;;;;;;;1.63;1.53;;;;;;;2.58;92.58;99182.63;4994013;28;20455;-75
2021/01/12 05:21:12;;;;;;;1.63;1.53;;;;;;;2.57;92.44;99177.53;4995273;28;20479;-74
2021/01/12 05:23:58;;;;;;;0.70;0.70;;;;;;;2.53;92.65;99188.09;4995193;28;20416;-74
2021/01/12 05:26:25;;;;;;;1.33;1.23;;;;;;;2.53;92.80;99174.59;4993378;28;20822;-74
2021/01/12 05:28:51;;;;;;;0.87;0.87;;;;;;;2.50;92.77;99163.63;4995301;28;20416;-74
2021/01/12 05:31:16;;;;;;;1.47;1.37;;;;;;;2.49;93.09;99162.81;4994968;28;20439;-75
2021/01/12 05:33:43;;;;;;;1.00;1.00;;;;;;;2.46;92.77;99165.25;4993458;28;20188;-75
2021/01/12 05:36:09;;;;;;;2.00;1.90;;;;;;;2.46;93.18;99158.00;4994420;28;20193;-75
2021/01/12 05:38:36;;;;;;;0.90;0.90;;;;;;;2.47;93.03;99153.41;4994693;28;20812;-74
2021/01/12 05:41:03;;;;;;;1.80;1.53;;;;;;;2.42;93.10;99140.78;4994897;28;20493;-74
2021/01/12 05:43:34;;;;;;;1.77;1.67;;;;;;;2.45;93.09;99137.50;4994575;28;20420;-74
2021/01/12 05:46:11;;;;;;;1.40;1.30;;;;;;;2.43;93.18;99141.59;4994576;28;20483;-74
2021/01/12 05:48:39;;;;;;;0.30;0.30;;;;;;;2.43;93.04;99133.50;4994971;28;20428;-77
2021/01/12 05:51:07;;;;;;;1.60;1.47;;;;;;;2.39;93.49;99128.69;4994326;28;20444;-78
2021/01/12 05:53:57;;;;;;;0.77;0.77;;;;;;;2.39;93.46;99126.00;4994434;28;20420;-75
2021/01/12 05:56:25;;;;;;;1.60;1.40;;;;;;;2.38;93.73;99127.09;4993800;28;20452;-75
2021/01/12 05:58:53;;;;;;;1.80;1.27;;;;;;;2.42;93.24;99134.59;4994434;28;20416;-76
2021/01/12 06:01:31;;;;;;;1.50;1.40;;;;;;;2.41;93.52;99120.31;4994340;28;20404;-75
2021/01/12 06:03:57;;;;;;;1.40;1.20;;;;;;;2.44;93.16;99111.66;4994278;28;20416;-77
2021/01/12 06:06:23;;;;;;;0.73;0.60;;;;;;;2.44;93.50;99116.22;4993748;28;20409;-75
2021/01/12 06:08:50;;;;;;;0.93;0.60;;;;;;;2.49;93.04;99114.28;4994265;28;20215;-74
2021/01/12 06:11:18;;;;;;;1.67;1.30;;;;;;;2.52;93.39;99102.91;4994201;28;20208;-79
2021/01/12 06:13:53;;;;;;;0.80;0.80;;;;;;;2.52;93.26;99112.91;4994062;28;20416;-75
2021/01/12 06:16:22;;;;;;;0.33;0.33;;;;;;;2.53;93.06;99098.34;4993524;28;20490;-75
2021/01/12 06:19:05;;;;;;;0.70;0.70;;;;;;;2.53;93.82;99109.13;4994301;28;20427;-74
2021/01/12 06:21:34;;;;;;;1.50;1.40;;;;;;;2.54;93.22;99102.63;4992657;28;20786;-76
2021/01/12 06:24:03;;;;;;;0.93;0.93;;;;;;;2.57;93.01;99107.44;4993885;28;20421;-75
2021/01/12 06:26:28;;;;;;;1.10;1.00;;;;;;;2.61;93.06;99100.38;4993392;28;20413;-75
2021/01/12 06:28:54;;;;;;;1.50;1.40;;;;;;;2.59;92.79;99094.47;4993536;28;20413;-75
2021/01/12 06:31:19;;;;;;;0.50;0.50;;;;;;;2.63;92.91;99100.88;4993718;28;20538;-76
2021/01/12 06:33:56;;;;;;;1.30;1.20;;;;;;;2.62;93.04;99097.38;4993838;28;20634;-74
2021/01/12 06:36:25;;;;;;;1.33;0.80;;;;;;;2.61;93.22;99095.00;4993219;28;20500;-74
2021/01/12 06:38:50;;;;;;;0.93;0.93;;;;;;;2.63;93.20;99082.00;4992290;28;20428;-78
2021/01/12 06:41:20;;;;;;;1.57;1.03;;;;;;;2.62;93.61;99085.81;4993526;28;20901;-75
2021/01/12 06:43:49;;;;;;;1.10;0.90;;;;;;;2.63;93.37;99096.31;4993554;28;20585;-75
2021/01/12 06:46:16;;;;;;;1.53;1.43;;;;;;;2.67;93.71;99096.50;4992952;28;20424;-76
2021/01/12 06:48:45;;;;;;;0.50;0.50;;;;;;;2.69;93.76;99078.94;4993383;28;20420;-76
2021/01/12 06:51:13;;;;;;;1.30;1.30;;;;;;;2.72;93.35;99069.47;4993113;28;20436;-75
2021/01/12 06:53:45;;;;;;;1.20;1.10;;;;;;;2.76;93.62;99067.78;4993461;28;20432;-75
2021/01/12 06:56:10;;;;;;;0.40;0.40;;;;;;;2.77;93.56;99068.59;4992578;28;20452;-75
2021/01/12 06:58:35;;;;;;;0.97;0.90;;;;;;;2.80;93.37;99063.41;4993416;28;20432;-76
2021/01/12 07:01:01;;;;;;;1.20;1.13;;;;;;;2.81;93.31;99066.91;4993359;28;20178;-73
2021/01/12 07:03:31;;;;;;;1.20;1.10;;;;;;;2.80;93.66;99066.09;4993261;28;20178;-74
2021/01/12 07:06:01;;;;;;;0.87;0.50;;;;;;;2.80;93.35;99063.41;4993017;28;20666;-73
2021/01/12 07:08:28;;;;;;;1.00;0.87;;;;;;;2.83;93.17;99062.81;4992525;28;20516;-75
2021/01/12 07:10:54;;;;;;;0.67;0.67;;;;;;;2.82;93.92;99061.22;4993038;28;20420;-74
2021/01/12 07:13:19;;;;;;;0.60;0.60;;;;;;;2.82;93.70;99066.59;4992979;28;20431;-75
2021/01/12 07:15:50;;;;;;;0.33;0.33;;;;;;;2.81;93.92;99056.13;4992845;28;20688;-74
2021/01/12 07:18:22;;;;;;;1.60;1.50;;;;;;;2.78;93.84;99060.22;4992416;28;20264;-74
2021/01/12 07:20:47;;;;;;;0.60;0.60;;;;;;;2.81;93.75;99056.91;4992885;28;20784;-74
2021/01/12 07:23:13;;;;;;;0.83;0.83;;;;;;;2.81;93.81;99051.53;4992574;28;20428;-73
2021/01/12 07:25:44;;;;;;;0.50;0.50;;;;;;;2.82;94.09;99053.13;4992612;28;20224;-73
2021/01/12 07:28:20;;;;;;;0.93;0.83;;;;;;;2.85;93.80;99055.22;4992008;28;20456;-73
2021/01/12 07:30:51;;;;;;;1.67;1.57;;;;;;;2.85;94.08;99057.91;4992506;28;20423;-71
2021/01/12 07:33:16;;;;;;;0.50;0.50;;;;;;;2.88;94.38;99049.25;4992550;28;21095;-71
2021/01/12 07:35:42;;;;;;;4.43;1.30;;;;;;;2.89;94.11;99048.16;4992343;28;20611;-71
2021/01/12 07:38:07;;;;;;;0.73;0.73;;;;;;;2.91;94.29;99042.47;4991597;28;20193;-71
2021/01/12 07:40:34;;;;;;;0.87;0.60;;;;;;;2.90;94.29;99038.97;4992118;28;20208;-71
2021/01/12 07:43:01;;;;;;;0.70;0.70;;;;;;;2.92;94.67;99044.06;4993238;28;20351;-75
2021/01/12 07:45:28;;;;;;;0.87;0.87;;;;;;;2.95;94.41;99046.97;4991349;28;20417;-71
2021/01/12 07:47:57;;;;;;;0.47;0.47;;;;;;;2.98;94.36;99050.97;4990922;28;20487;-72
2021/01/12 07:50:25;;;;;;;1.80;1.70;;;;;;;2.99;94.53;99050.69;4992158;28;20547;-72
2021/01/12 07:52:51;;;;;;;1.80;1.70;;;;;;;3.03;94.37;99050.06;4991941;28;20453;-72
2021/01/12 07:55:17;;;;;;;1.67;1.57;;;;;;;3.05;94.68;99056.81;4992053;28;20525;-72
2021/01/12 07:57:44;;;;;;;1.77;1.67;;;;;;;3.07;94.46;99056.50;4992240;28;20217;-71
2021/01/12 08:00:12;;;;;;;0.90;0.90;;;;;;;3.11;94.33;99060.19;4992560;28;20268;-72
2021/01/12 08:02:39;;;;;;;1.30;1.30;;;;;;;3.13;94.48;99058.00;4990798;28;20487;-71
2021/01/12 08:05:10;;;;;;;1.30;1.20;;;;;;;3.14;94.43;99060.41;4991776;28;20430;-71
2021/01/12 08:07:37;;;;;;;1.80;1.70;;;;;;;3.18;94.38;99047.13;4991592;28;20429;-71
2021/01/12 08:10:04;;;;;;;1.53;1.43;;;;;;;3.18;94.75;99049.81;4991834;28;20784;-72
2021/01/12 08:12:29;;;;;;;1.77;1.67;;;;;;;3.21;94.94;99044.66;4991750;28;20432;-72
2021/01/12 08:14:55;;;;;;;1.63;1.53;;;;;;;3.24;94.51;99040.53;4991339;28;20447;-72
2021/01/12 08:17:22;;;;;;;1.43;1.33;;;;;;;3.27;94.66;99051.53;4989865;28;20221;-74
2021/01/12 08:19:48;;;;;;;1.77;1.67;;;;;;;3.32;94.46;99058.75;4991849;28;20231;-71
2021/01/12 08:22:17;;;;;;;1.60;1.50;;;;;;;3.36;94.63;99057.06;4989869;28;20588;-75
2021/01/12 08:24:46;;;;;;;1.83;1.73;;;;;;;3.41;94.39;99050.75;4991309;28;20180;-74
2021/01/12 08:27:14;;;;;;;1.67;1.57;;;;;;;3.44;94.44;99055.56;4991036;28;20565;-75
2021/01/12 08:29:39;;;;;;;1.70;1.60;;;;;;;3.49;94.00;99060.88;4991583;28;20424;-72
2021/01/12 08:32:06;;;;;;;1.87;1.60;;;;;;;3.52;94.38;99060.28;4990359;28;20479;-72
2021/01/12 08:34:56;;;;;;;1.40;1.30;;;;;;;3.55;93.88;99056.97;4990004;28;20240;-73
2021/01/12 08:37:22;;;;;;;1.27;1.27;;;;;;;3.55;94.32;99065.06;4972002;28;21038;-73
2021/01/12 08:39:49;;;;;;;2.07;1.97;;;;;;;3.57;94.59;99057.47;4990391;28;20685;-74
2021/01/12 08:42:19;;;;;;;2.30;2.20;;;;;;;3.60;94.65;99067.66;4990209;28;20475;-71
2021/01/12 08:44:45;;;;;;;1.67;1.57;;;;;;;3.62;94.81;99068.19;4990361;28;20516;-72
2021/01/12 08:47:11;;;;;;;2.17;2.07;;;;;;;3.62;94.68;99072.78;4990359;28;20177;-71
2021/01/12 08:49:36;;;;;;;2.80;2.60;;;;;;;3.58;94.64;99072.56;4991093;28;20187;-72
2021/01/12 08:52:04;;;;;;;1.33;1.10;;;;;;;3.58;95.13;99076.06;4990745;28;20668;-72
2021/01/12 08:54:30;;;;;;;2.50;2.30;;;;;;;3.58;94.95;99081.47;4991268;28;20187;-71
2021/01/12 08:57:00;;;;;;;3.57;1.90;;;;;;;3.59;95.53;99087.69;4990327;28;20558;-71
2021/01/12 08:59:33;;;;;;;2.00;1.90;;;;;;;3.58;95.60;99086.06;4990792;28;20170;-71
2021/01/12 09:02:02;;;;;;;2.73;2.57;;;;;;;3.63;95.30;99094.09;4990976;28;20432;-72
2021/01/12 09:04:28;;;;;;;1.03;1.00;;;;;;;3.63;95.52;99082.50;4995111;28;20180;-73
2021/01/12 09:07:20;;;;;;;2.33;2.23;;;;;;;3.64;96.12;99079.50;4994089;28;20640;-71
2021/01/12 09:09:54;;;;;;;0.97;0.97;;;;;;;3.66;95.87;99079.19;4987236;28;20185;-71
2021/01/12 09:12:20;;;;;;;1.53;1.43;;;;;;;3.66;95.95;99085.41;4990953;28;20180;-71
2021/01/12 09:14:47;;;;;;;1.40;1.33;;;;;;;3.66;95.96;99081.91;4990822;28;20897;-72
2021/01/12 09:17:19;;;;;;;0.73;0.73;;;;;;;3.68;95.92;99087.78;4990069;28;20197;-75
2021/01/12 09:19:50;;;;;;;1.63;1.53;;;;;;;3.68;96.38;99080.50;4990767;28;20471;-72
2021/01/12 09:22:17;;;;;;;1.80;1.70;;;;;;;3.71;96.00;99076.38;4990113;28;20471;-71
2021/01/12 09:24:53;;;;;;;2.37;2.27;;;;;;;3.75;96.54;99077.38;4991000;28;20173;-73
2021/01/12 09:27:19;;;;;;;0.70;0.63;;;;;;;3.76;96.74;99076.28;4972704;28;20185;-72
2021/01/12 09:29:44;;;;;;;1.60;1.50;;;;;;;3.77;96.67;99072.50;4990442;28;20427;-71
2021/01/12 09:32:11;;;;;;;0.87;0.83;;;;;;;3.75;96.55;99072.78;4990656;28;20181;-71
2021/01/12 09:34:37;;;;;;;0.83;0.83;;;;;;;3.77;96.31;99083.31;4990614;28;20177;-72
2021/01/12 09:37:14;;;;;;;0.67;0.67;;;;;;;3.77;96.30;99070.59;4989915;28;20232;-72
2021/01/12 09:39:39;;;;;;;1.57;1.47;;;;;;;3.76;96.65;99071.72;4990570;28;20177;-72
2021/01/12 09:42:05;;;;;;;1.10;1.00;;;;;;;3.78;96.99;99074.91;4990443;28;21044;-71
2021/01/12 09:44:30;;;;;;;0.90;0.90;;;;;;;3.80;96.81;99074.59;4990568;28;20188;-71
2021/01/12 09:47:00;;;;;;;1.17;1.17;;;;;;;3.81;96.74;99057.28;4989994;28;20180;-71
2021/01/12 09:49:25;;;;;;;1.07;1.07;;;;;;;3.82;96.73;99067.78;4990735;28;20202;-71
2021/01/12 09:51:51;;;;;;;0.93;0.90;;;;;;;3.85;96.59;99066.38;4972965;28;20432;-71
2021/01/12 09:54:16;;;;;;;0.97;0.97;;;;;;;3.85;96.32;99069.88;4973043;28;20184;-71
2021/01/12 09:56:41;;;;;;;1.90;1.80;;;;;;;3.88;96.82;99066.56;4972343;28;20201;-72
2021/01/12 09:59:06;;;;;;;0.60;0.60;;;;;;;3.90;96.53;99068.97;4990405;28;20177;-71
2021/01/12 10:01:32;;;;;;;0.77;0.77;;;;;;;3.89;96.74;99070.88;4990351;28;20193;-71
2021/01/12 10:03:57;;;;;;;1.10;1.00;;;;;;;3.91;97.14;99073.31;4992327;28;20240;-73
2021/01/12 10:06:23;;;;;;;0.60;0.60;;;;;;;3.93;96.86;99081.91;4993828;28;20177;-71
2021/01/12 10:08:48;;;;;;;2.10;2.00;;;;;;;3.94;97.27;99074.59;4994109;28;20655;-71
2021/01/12 10:11:14;;;;;;;0.73;0.67;;;;;;;3.95;96.80;99077.00;4993938;28;20188;-72
2021/01/12 10:13:43;;;;;;;1.13;1.13;;;;;;;3.95;96.76;99077.00;4994179;28;20181;-71
2021/01/12 10:16:08;;;;;;;2.07;1.40;;;;;;;3.94;97.44;99075.41;4993550;28;20216;-70
2021/01/12 10:18:34;;;;;;;0.57;0.57;;;;;;;3.95;97.18;99079.69;4993773;28;20173;-72
2021/01/12 10:20:59;;;;;;;0.90;0.83;;;;;;;3.96;97.14;99085.91;4993098;28;20211;-70
2021/01/12 10:23:24;;;;;;;0.80;0.80;;;;;;;3.94;97.55;99088.91;4992342;28;20645;-71
2021/01/12 10:25:50;;;;;;;2.43;2.23;;;;;;;3.93;97.83;99090.00;4993647;28;20312;-79
2021/01/12 10:28:19;;;;;;;0.87;0.87;;;;;;;3.94;97.81;99098.91;4993728;28;20213;-73
2021/01/12 10:30:45;;;;;;;1.30;1.23;;;;;;;3.91;98.20;99102.22;4993907;28;20395;-77
2021/01/12 10:33:10;;;;;;;2.90;2.70;;;;;;;3.89;97.88;99145.72;4994251;28;20913;-75
2021/01/12 10:35:35;;;;;;;1.80;1.70;;;;;;;3.64;97.67;99167.81;4994049;28;20204;-73
2021/01/12 10:38:01;;;;;;;1.90;1.50;;;;;;;3.55;97.49;99167.69;4993578;28;20634;-78
2021/01/12 10:40:26;;;;;;;1.47;1.37;;;;;;;3.20;96.74;99177.97;4993903;28;20177;-78
2021/01/12 10:42:52;;;;;;;2.23;0.70;;;;;;;3.03;96.83;99174.97;4994120;28;20187;-73
2021/01/12 10:45:17;;;;;;;0.90;0.90;;;;;;;2.87;96.83;99187.09;4993995;28;20180;-73
2021/01/12 10:47:46;;;;;;;2.03;1.27;;;;;;;2.78;96.87;99191.56;4993620;28;20216;-73
2021/01/12 10:50:15;;;;;;;1.90;0.90;;;;;;;2.71;96.86;99196.47;4994102;28;20178;-75
2021/01/12 10:52:41;;;;;;;1.50;0.60;;;;;;;2.48;95.99;99206.22;4976180;28;20453;-76
2021/01/12 10:55:08;;;;;;;4.13;0.90;;;;;;;2.50;95.73;99212.94;4993694;28;20428;-78
2021/01/12 10:57:33;;;;;;;1.77;0.90;;;;;;;2.41;95.84;99216.53;4993156;28;20213;-76
2021/01/12 10:59:59;;;;;;;3.17;0.80;;;;;;;2.59;96.03;99218.47;4993910;28;20431;-75
2021/01/12 11:02:24;;;;;;;6.00;1.40;;;;;;;2.54;95.73;99234.72;4993665;28;20634;-75
2021/01/12 11:04:50;;;;;;;1.90;0.57;;;;;;;2.27;95.94;99233.41;4975419;28;20248;-73
2021/01/12 11:07:15;;;;;;;3.47;0.70;;;;;;;2.29;95.94;99227.72;4993115;28;20243;-73
2021/01/12 11:09:40;;;;;;;2.53;1.33;;;;;;;2.41;96.22;99230.03;4994653;28;20268;-75
2021/01/12 11:12:09;;;;;;;5.20;1.00;;;;;;;2.47;95.90;99236.97;4995228;28;20268;-73
2021/01/12 11:14:37;;;;;;;2.90;1.03;;;;;;;2.58;95.87;99233.03;4992424;28;20176;-72
2021/01/12 11:17:03;;;;;;;2.90;1.13;;;;;;;2.50;95.33;99233.69;4992504;28;20522;-71
2021/01/12 11:19:29;;;;;;;3.37;1.20;;;;;;;2.54;95.40;99240.91;4993078;28;20421;-74
2021/01/12 11:21:54;;;;;;;5.10;1.00;;;;;;;2.54;95.50;99238.22;4992405;28;20184;-72
2021/01/12 11:24:23;;;;;;;4.33;1.20;;;;;;;2.51;95.14;99235.31;4992799;28;20420;-73
2021/01/12 11:26:50;;;;;;;2.57;1.17;;;;;;;2.53;95.55;99236.63;4992486;28;20176;-72
2021/01/12 11:29:16;;;;;;;2.70;0.70;;;;;;;2.60;95.42;99231.69;4992877;28;20788;-72
2021/01/12 11:31:42;;;;;;;1.80;1.00;;;;;;;2.64;94.98;99234.59;4993191;28;20424;-72
2021/01/12 11:34:09;;;;;;;2.03;0.77;;;;;;;2.73;95.09;99234.75;4992860;28;20511;-71
2021/01/12 11:36:45;;;;;;;1.70;0.60;;;;;;;2.72;94.43;99236.63;4992613;28;20555;-70
2021/01/12 11:39:12;;;;;;;2.73;0.70;;;;;;;2.64;93.58;99242.69;4975235;28;20415;-74
2021/01/12 11:41:54;;;;;;;3.00;0.50;;;;;;;2.68;93.47;99238.31;4992733;28;20467;-70